Time;durP1;ratioP1;P1;durP2;ratioP2;P2;SDS_P1;SDS_P2;PMS_P1;PMS_P2;Temp;Humidity;BMP_temperature;BMP_pressure;BME280_temperature;BME280_humidity;BME280_pressure;Samples;Min_cycle;Max_cycle;Signal;HPM_P1;HPM_P2
2021/03/06 00:01:09;;;;;;;3.70;3.00;;;;;;;;;;4974463;28;20534;-75
2021/03/06 00:03:34;;;;;;;3.80;2.70;;;;;;;;;;4978675;28;20541;-74
2021/03/06 00:06:00;;;;;;;3.80;2.97;;;;;;;;;;4974784;28;20471;-74
2021/03/06 00:08:27;;;;;;;3.17;2.40;;;;;;;;;;4959751;28;20479;-75
2021/03/06 00:10:53;;;;;;;4.88;3.25;;;;;;;;;;4974387;28;20841;-76
2021/03/06 00:13:19;;;;;;;3.17;2.70;;;;;;;;;;4978294;28;20211;-74
2021/03/06 00:15:45;;;;;;;3.83;2.50;;;;;;;;;;4973833;28;20192;-74
2021/03/06 00:18:11;;;;;;;4.05;3.65;;;;;;;;;;4975945;28;20212;-74
2021/03/06 00:20:37;;;;;;;4.10;3.10;;;;;;;;;;4974151;28;20195;-75
2021/03/06 00:23:03;;;;;;;4.30;3.63;;;;;;;;;;4974898;28;20631;-75
2021/03/06 00:25:29;;;;;;;3.47;2.67;;;;;;;;;;4974640;28;20503;-76
2021/03/06 00:27:55;;;;;;;5.18;3.25;;;;;;;;;;4976666;28;20794;-76
2021/03/06 00:30:22;;;;;;;3.63;3.30;;;;;;;;;;4973673;28;20529;-76
2021/03/06 00:32:48;;;;;;;4.47;3.75;;;;;;;;;;4984002;28;20258;-76
2021/03/06 00:35:14;;;;;;;3.53;3.15;;;;;;;;;;4976104;28;20187;-75
2021/03/06 00:37:41;;;;;;;2.97;2.25;;;;;;;;;;4981827;28;20203;-75
2021/03/06 00:40:09;;;;;;;4.53;3.45;;;;;;;;;;4974851;28;20260;-75
2021/03/06 00:42:35;;;;;;;5.82;3.88;;;;;;;;;;4982090;28;20191;-75
2021/03/06 00:45:01;;;;;;;5.55;2.92;;;;;;;;;;4973222;28;20276;-75
2021/03/06 00:47:27;;;;;;;8.40;5.70;;;;;;;;;;4974314;28;20728;-76
2021/03/06 00:49:53;;;;;;;3.00;2.70;;;;;;;;;;4974456;28;20884;-75
2021/03/06 00:52:19;;;;;;;4.18;3.30;;;;;;;;;;4982859;28;20275;-76
2021/03/06 00:54:45;;;;;;;3.72;3.20;;;;;;;;;;4974428;28;20177;-75
2021/03/06 00:57:11;;;;;;;6.15;4.03;;;;;;;;;;4973241;28;20189;-75
2021/03/06 00:59:37;;;;;;;3.63;2.67;;;;;;;;;;4958498;28;20181;-75
2021/03/06 01:02:03;;;;;;;6.70;3.97;;;;;;;;;;4981224;28;20617;-75
2021/03/06 01:04:29;;;;;;;8.23;4.10;;;;;;;;;;4980799;28;20523;-77
2021/03/06 01:06:55;;;;;;;3.67;3.30;;;;;;;;;;4976520;28;20634;-77
2021/03/06 01:09:21;;;;;;;5.70;4.03;;;;;;;;;;4974159;28;20436;-76
2021/03/06 01:11:47;;;;;;;5.35;2.50;;;;;;;;;;4974966;28;20480;-77
2021/03/06 01:14:13;;;;;;;5.93;4.00;;;;;;;;;;4973857;28;20189;-73
2021/03/06 01:16:39;;;;;;;6.05;2.90;;;;;;;;;;4973507;28;20536;-74
2021/03/06 01:19:05;;;;;;;3.75;3.08;;;;;;;;;;4956067;28;20223;-77
2021/03/06 01:21:31;;;;;;;3.47;2.83;;;;;;;;;;4982101;28;21989;-77
2021/03/06 01:23:57;;;;;;;3.95;2.85;;;;;;;;;;4973572;28;20171;-76
2021/03/06 01:26:23;;;;;;;5.13;3.90;;;;;;;;;;4974587;28;20694;-75
2021/03/06 01:28:49;;;;;;;4.40;3.40;;;;;;;;;;4973779;28;20443;-76
2021/03/06 01:31:15;;;;;;;3.42;3.13;;;;;;;;;;4982850;28;20461;-75
2021/03/06 01:33:41;;;;;;;3.88;3.47;;;;;;;;;;4973340;28;20230;-76
2021/03/06 01:36:07;;;;;;;6.33;3.43;;;;;;;;;;4976746;28;20641;-75
2021/03/06 01:38:33;;;;;;;8.10;4.43;;;;;;;;;;4977270;28;20499;-78
2021/03/06 01:40:59;;;;;;;4.27;3.33;;;;;;;;;;4972387;28;20276;-77
2021/03/06 01:43:25;;;;;;;5.82;3.85;;;;;;;;;;4975644;28;20471;-76
2021/03/06 01:45:51;;;;;;;4.70;3.33;;;;;;;;;;4980124;28;20537;-74
2021/03/06 01:48:17;;;;;;;4.17;3.53;;;;;;;;;;4977138;28;20444;-77
2021/03/06 01:50:44;;;;;;;5.93;3.87;;;;;;;;;;4978817;28;20550;-77
2021/03/06 01:53:11;;;;;;;3.88;3.47;;;;;;;;;;4974945;28;20774;-76
2021/03/06 01:55:39;;;;;;;3.85;3.40;;;;;;;;;;4987132;28;20180;-76
2021/03/06 01:58:06;;;;;;;4.47;2.95;;;;;;;;;;4981891;28;20251;-78
2021/03/06 02:00:32;;;;;;;4.32;3.90;;;;;;;;;;4959004;28;20537;-78
2021/03/06 02:02:59;;;;;;;5.28;4.13;;;;;;;;;;4966829;28;20184;-77
2021/03/06 02:05:25;;;;;;;5.28;3.55;;;;;;;;;;4960782;28;20593;-77
2021/03/06 02:07:51;;;;;;;3.65;3.35;;;;;;;;;;4983096;28;20596;-75
2021/03/06 02:10:18;;;;;;;3.90;3.25;;;;;;;;;;4978746;28;20204;-75
2021/03/06 02:13:02;;;;;;;5.43;3.92;;;;;;;;;;4977469;28;20180;-76
2021/03/06 02:15:28;;;;;;;4.38;3.97;;;;;;;;;;4978391;28;20183;-75
2021/03/06 02:17:57;;;;;;;5.40;3.60;;;;;;;;;;4976385;28;20224;-77
2021/03/06 02:20:42;;;;;;;5.15;4.15;;;;;;;;;;4977746;28;20540;-78
2021/03/06 02:23:19;;;;;;;4.40;3.92;;;;;;;;;;4976729;28;20167;-76
2021/03/06 02:26:02;;;;;;;4.35;3.95;;;;;;;;;;4978123;28;20246;-77
2021/03/06 02:28:35;;;;;;;5.53;4.50;;;;;;;;;;4978446;28;20185;-77
2021/03/06 02:31:03;;;;;;;4.50;4.03;;;;;;;;;;4978002;28;20198;-74
2021/03/06 02:33:30;;;;;;;6.38;4.43;;;;;;;;;;4960111;28;20200;-75
2021/03/06 02:35:58;;;;;;;5.00;4.45;;;;;;;;;;4979695;28;20177;-75
2021/03/06 02:38:26;;;;;;;4.50;4.10;;;;;;;;;;4983056;28;20193;-74
2021/03/06 02:40:53;;;;;;;5.00;4.50;;;;;;;;;;4982387;28;20199;-75
2021/03/06 02:43:19;;;;;;;5.03;3.65;;;;;;;;;;4985166;28;20182;-76
2021/03/06 02:45:46;;;;;;;6.00;5.40;;;;;;;;;;4976414;28;20274;-75
2021/03/06 02:48:12;;;;;;;5.38;4.45;;;;;;;;;;4977195;28;20188;-77
2021/03/06 02:50:38;;;;;;;7.03;4.25;;;;;;;;;;4977297;28;20505;-76
2021/03/06 02:53:04;;;;;;;6.53;4.40;;;;;;;;;;4977003;28;20219;-75
2021/03/06 02:55:30;;;;;;;6.73;4.60;;;;;;;;;;4977164;28;20652;-76
2021/03/06 02:58:08;;;;;;;6.95;4.93;;;;;;;;;;4976446;28;20440;-77
2021/03/06 03:00:34;;;;;;;5.43;4.32;;;;;;;;;;4975339;28;20265;-77
2021/03/06 03:03:13;;;;;;;6.20;5.20;;;;;;;;;;4989232;28;20184;-77
2021/03/06 03:05:51;;;;;;;6.38;5.15;;;;;;;;;;4978522;28;20556;-76
2021/03/06 03:08:26;;;;;;;5.47;4.15;;;;;;;;;;4975620;28;20184;-79
2021/03/06 03:10:54;;;;;;;6.60;3.78;;;;;;;;;;4959287;28;20643;-76
2021/03/06 03:13:20;;;;;;;5.18;4.68;;;;;;;;;;4957476;28;20259;-75
2021/03/06 03:15:48;;;;;;;4.77;4.23;;;;;;;;;;4984199;28;20661;-76
2021/03/06 03:18:19;;;;;;;5.18;3.95;;;;;;;;;;4975266;28;20505;-75
2021/03/06 03:20:48;;;;;;;5.72;3.97;;;;;;;;;;4970485;28;20200;-76
2021/03/06 03:23:20;;;;;;;5.28;4.30;;;;;;;;;;4975854;28;20177;-75
2021/03/06 03:25:47;;;;;;;4.50;3.85;;;;;;;;;;4976186;28;20243;-76
2021/03/06 03:28:14;;;;;;;7.50;4.25;;;;;;;;;;4975308;28;20530;-77
2021/03/06 03:30:40;;;;;;;8.43;5.07;;;;;;;;;;4976278;28;20541;-75
2021/03/06 03:33:08;;;;;;;5.28;4.78;;;;;;;;;;4974545;28;20189;-77
2021/03/06 03:35:35;;;;;;;6.03;5.00;;;;;;;;;;4978752;28;20578;-76
2021/03/06 03:38:02;;;;;;;4.88;4.00;;;;;;;;;;4975435;28;20186;-76
2021/03/06 03:40:28;;;;;;;4.65;4.20;;;;;;;;;;4974814;28;20181;-74
2021/03/06 03:42:54;;;;;;;4.38;3.97;;;;;;;;;;4975757;28;20185;-75
2021/03/06 03:45:21;;;;;;;5.15;4.00;;;;;;;;;;4976588;28;20179;-76
2021/03/06 03:47:48;;;;;;;4.35;3.97;;;;;;;;;;4974859;28;20221;-75
2021/03/06 03:50:15;;;;;;;5.80;4.72;;;;;;;;;;4984633;28;20179;-77
2021/03/06 03:52:45;;;;;;;7.25;4.20;;;;;;;;;;4960202;28;20269;-74
2021/03/06 03:55:11;;;;;;;4.80;4.15;;;;;;;;;;4976045;28;20180;-76
2021/03/06 03:57:38;;;;;;;4.70;4.30;;;;;;;;;;4975022;28;20190;-76
2021/03/06 04:00:05;;;;;;;5.07;4.32;;;;;;;;;;4975069;28;20690;-74
2021/03/06 04:02:31;;;;;;;4.70;3.60;;;;;;;;;;4974410;28;20210;-74
2021/03/06 04:04:57;;;;;;;5.50;4.10;;;;;;;;;;4958736;28;20269;-76
2021/03/06 04:07:23;;;;;;;3.77;3.43;;;;;;;;;;4974769;28;20553;-76
2021/03/06 04:09:49;;;;;;;4.18;3.72;;;;;;;;;;4979915;28;20547;-75
2021/03/06 04:12:15;;;;;;;3.83;3.43;;;;;;;;;;4977344;28;20186;-75
2021/03/06 04:14:41;;;;;;;4.75;4.03;;;;;;;;;;4974862;28;20518;-74
2021/03/06 04:17:07;;;;;;;4.70;4.20;;;;;;;;;;4975906;28;20233;-76
2021/03/06 04:19:33;;;;;;;4.32;4.03;;;;;;;;;;4984928;28;20185;-77
2021/03/06 04:21:59;;;;;;;4.50;4.10;;;;;;;;;;4980848;28;20185;-77
2021/03/06 04:24:25;;;;;;;5.10;4.30;;;;;;;;;;4974555;28;20456;-76
2021/03/06 04:26:51;;;;;;;5.20;4.10;;;;;;;;;;4968886;28;20566;-77
2021/03/06 04:29:18;;;;;;;4.57;4.18;;;;;;;;;;4974471;28;20522;-77
2021/03/06 04:31:44;;;;;;;4.53;3.35;;;;;;;;;;4987209;28;20231;-76
2021/03/06 04:34:10;;;;;;;4.00;3.70;;;;;;;;;;4973939;28;20510;-76
2021/03/06 04:36:36;;;;;;;4.85;4.05;;;;;;;;;;4979385;28;20582;-76
2021/03/06 04:39:03;;;;;;;4.70;3.67;;;;;;;;;;4976511;28;20218;-78
2021/03/06 04:41:29;;;;;;;4.70;4.25;;;;;;;;;;4956302;28;20472;-75
2021/03/06 04:43:55;;;;;;;4.70;3.73;;;;;;;;;;4979052;28;20183;-77
2021/03/06 04:46:21;;;;;;;3.58;3.28;;;;;;;;;;4973804;28;20574;-77
2021/03/06 04:48:47;;;;;;;4.57;3.90;;;;;;;;;;4975677;28;20184;-75
2021/03/06 04:51:13;;;;;;;6.55;4.50;;;;;;;;;;4974081;28;20172;-76
2021/03/06 04:53:39;;;;;;;5.35;4.65;;;;;;;;;;4975839;28;20203;-77
2021/03/06 04:56:05;;;;;;;3.40;3.10;;;;;;;;;;4974065;28;20211;-75
2021/03/06 04:58:31;;;;;;;5.00;3.45;;;;;;;;;;4980159;28;20434;-75
2021/03/06 05:00:57;;;;;;;4.83;4.33;;;;;;;;;;4979142;28;20184;-76
2021/03/06 05:03:23;;;;;;;6.30;3.87;;;;;;;;;;4975704;28;20445;-74
2021/03/06 05:05:49;;;;;;;5.10;3.97;;;;;;;;;;4973671;28;20579;-75
2021/03/06 05:08:15;;;;;;;4.80;3.93;;;;;;;;;;4976833;28;20442;-74
2021/03/06 05:10:41;;;;;;;5.00;3.83;;;;;;;;;;4980615;28;20536;-77
2021/03/06 05:13:07;;;;;;;6.33;3.63;;;;;;;;;;4975146;28;20445;-76
2021/03/06 05:15:33;;;;;;;5.20;4.50;;;;;;;;;;4973228;28;21001;-76
2021/03/06 05:17:59;;;;;;;4.23;3.83;;;;;;;;;;4973134;28;20572;-75
2021/03/06 05:20:25;;;;;;;4.20;3.90;;;;;;;;;;4964191;28;20427;-74
2021/03/06 05:22:51;;;;;;;4.57;3.67;;;;;;;;;;4973872;28;20619;-76
2021/03/06 05:25:17;;;;;;;4.90;3.70;;;;;;;;;;4974081;28;20704;-75
2021/03/06 05:27:43;;;;;;;4.90;3.50;;;;;;;;;;4973296;28;20293;-77
2021/03/06 05:30:09;;;;;;;3.72;3.42;;;;;;;;;;4981585;28;20254;-76
2021/03/06 05:32:35;;;;;;;3.97;3.67;;;;;;;;;;4983820;28;20232;-76
2021/03/06 05:35:02;;;;;;;4.90;3.80;;;;;;;;;;4973900;28;20183;-74
2021/03/06 05:37:28;;;;;;;3.97;3.35;;;;;;;;;;4973274;28;20651;-74
2021/03/06 05:39:54;;;;;;;3.83;3.40;;;;;;;;;;4973417;28;20218;-77
2021/03/06 05:42:22;;;;;;;3.90;3.45;;;;;;;;;;4975449;28;20183;-76
2021/03/06 05:44:48;;;;;;;4.80;3.83;;;;;;;;;;4973082;28;20630;-76
2021/03/06 05:47:14;;;;;;;4.05;3.50;;;;;;;;;;4979130;28;20218;-77
2021/03/06 05:49:40;;;;;;;7.68;4.97;;;;;;;;;;4980874;28;20191;-78
2021/03/06 05:52:07;;;;;;;7.50;3.63;;;;;;;;;;4961363;28;20185;-74
2021/03/06 05:54:35;;;;;;;3.72;3.10;;;;;;;;;;4977943;28;20439;-76
2021/03/06 05:57:02;;;;;;;3.35;3.10;;;;;;;;;;4977678;28;20542;-75
2021/03/06 05:59:29;;;;;;;5.10;3.88;;;;;;;;;;4982205;28;20183;-78
2021/03/06 06:01:55;;;;;;;6.35;4.25;;;;;;;;;;4954963;28;20253;-74
2021/03/06 06:04:24;;;;;;;4.05;3.65;;;;;;;;;;4973938;28;20190;-74
2021/03/06 06:06:51;;;;;;;8.75;3.85;;;;;;;;;;4972827;28;20205;-76
2021/03/06 06:09:17;;;;;;;4.43;4.00;;;;;;;;;;4974389;28;20179;-76
2021/03/06 06:11:42;;;;;;;8.20;3.60;;;;;;;;;;4975233;28;20184;-75
2021/03/06 06:14:08;;;;;;;3.77;3.47;;;;;;;;;;4979580;28;20430;-77
2021/03/06 06:16:35;;;;;;;4.63;4.18;;;;;;;;;;4974184;28;20845;-74
2021/03/06 06:19:05;;;;;;;4.10;3.70;;;;;;;;;;4973898;28;20247;-77
2021/03/06 06:21:40;;;;;;;3.95;3.55;;;;;;;;;;4957750;28;20187;-76
2021/03/06 06:24:06;;;;;;;3.90;3.50;;;;;;;;;;4970606;28;20720;-75
2021/03/06 06:26:32;;;;;;;6.78;3.85;;;;;;;;;;4977223;28;20215;-77
2021/03/06 06:28:58;;;;;;;3.70;3.33;;;;;;;;;;4988780;28;20182;-77
2021/03/06 06:31:25;;;;;;;8.93;3.38;;;;;;;;;;4976304;28;20431;-73
2021/03/06 06:33:54;;;;;;;16.92;4.20;;;;;;;;;;4975219;28;20659;-75
2021/03/06 06:36:37;;;;;;;7.72;3.90;;;;;;;;;;4983261;28;20653;-73
2021/03/06 06:39:04;;;;;;;5.00;3.70;;;;;;;;;;4979002;28;20186;-76
2021/03/06 06:41:48;;;;;;;6.38;4.10;;;;;;;;;;4979571;28;20210;-78
2021/03/06 06:44:14;;;;;;;4.38;3.53;;;;;;;;;;4973945;28;20179;-78
2021/03/06 06:46:40;;;;;;;4.40;3.78;;;;;;;;;;4971468;28;20215;-74
2021/03/06 06:49:06;;;;;;;4.25;3.50;;;;;;;;;;4975966;28;20269;-74
2021/03/06 06:51:32;;;;;;;5.57;4.17;;;;;;;;;;4974348;28;20744;-72
2021/03/06 06:54:08;;;;;;;5.17;3.63;;;;;;;;;;4975005;28;20427;-77
2021/03/06 06:56:35;;;;;;;5.40;3.80;;;;;;;;;;4981268;28;20871;-78
2021/03/06 06:59:05;;;;;;;7.07;4.07;;;;;;;;;;4977305;28;20264;-75
2021/03/06 07:01:32;;;;;;;4.30;3.90;;;;;;;;;;4979363;28;20204;-74
2021/03/06 07:04:04;;;;;;;9.32;4.20;;;;;;;;;;4981739;28;20604;-75
2021/03/06 07:06:30;;;;;;;9.80;5.28;;;;;;;;;;4981831;28;20635;-74
2021/03/06 07:09:05;;;;;;;5.63;4.03;;;;;;;;;;4978517;28;20698;-73
2021/03/06 07:11:31;;;;;;;6.32;4.45;;;;;;;;;;4972548;28;20210;-73
2021/03/06 07:13:57;;;;;;;7.23;4.57;;;;;;;;;;4973707;28;20212;-77
2021/03/06 07:16:23;;;;;;;5.68;4.50;;;;;;;;;;4973321;28;20913;-77
2021/03/06 07:18:59;;;;;;;6.97;3.60;;;;;;;;;;4974162;28;20525;-73
2021/03/06 07:21:25;;;;;;;3.90;3.55;;;;;;;;;;4957017;28;20194;-74
2021/03/06 07:23:51;;;;;;;5.30;4.40;;;;;;;;;;4974431;28;20330;-77
2021/03/06 07:26:17;;;;;;;8.33;4.83;;;;;;;;;;4973770;28;20625;-75
2021/03/06 07:28:43;;;;;;;4.87;4.30;;;;;;;;;;4977482;28;20450;-74
2021/03/06 07:31:09;;;;;;;7.30;4.13;;;;;;;;;;4978888;28;20426;-73
2021/03/06 07:33:36;;;;;;;5.05;4.05;;;;;;;;;;4974640;28;20501;-73
2021/03/06 07:36:03;;;;;;;4.72;4.32;;;;;;;;;;4973634;28;20227;-75
2021/03/06 07:38:29;;;;;;;4.80;4.30;;;;;;;;;;4973395;28;20175;-75
2021/03/06 07:41:00;;;;;;;3.30;3.00;;;;;;;;;;4973457;28;20255;-75
2021/03/06 07:43:30;;;;;;;6.50;4.75;;;;;;;;;;4974045;28;20518;-75
2021/03/06 07:45:57;;;;;;;4.35;3.58;;;;;;;;;;4973468;28;20211;-76
2021/03/06 07:48:28;;;;;;;4.80;4.07;;;;;;;;;;4972923;28;20341;-76
2021/03/06 07:50:54;;;;;;;6.70;5.35;;;;;;;;;;4972375;28;20201;-76
2021/03/06 07:53:21;;;;;;;4.97;3.70;;;;;;;;;;4956571;28;20176;-74
2021/03/06 07:55:48;;;;;;;4.70;4.30;;;;;;;;;;4973774;28;20184;-74
2021/03/06 07:58:16;;;;;;;4.93;4.15;;;;;;;;;;4955781;28;20210;-73
2021/03/06 08:00:42;;;;;;;4.55;3.67;;;;;;;;;;4972431;28;20218;-73
2021/03/06 08:03:30;;;;;;;5.78;4.20;;;;;;;;;;4972439;28;20579;-74
2021/03/06 08:06:00;;;;;;;5.65;4.72;;;;;;;;;;4953699;28;20224;-74
2021/03/06 08:08:32;;;;;;;4.80;3.85;;;;;;;;;;4972691;28;20248;-77
2021/03/06 08:11:10;;;;;;;5.60;4.90;;;;;;;;;;4972431;28;20521;-76
2021/03/06 08:13:39;;;;;;;10.07;5.45;;;;;;;;;;4973462;28;20188;-75
2021/03/06 08:16:29;;;;;;;4.80;4.30;;;;;;;;;;4972655;28;20236;-77
2021/03/06 08:18:59;;;;;;;8.60;4.78;;;;;;;;;;4957657;28;20190;-76
2021/03/06 08:21:35;;;;;;;5.85;5.25;;;;;;;;;;4971861;28;20221;-75
2021/03/06 08:24:19;;;;;;;6.55;5.15;;;;;;;;;;4972938;28;20196;-79
2021/03/06 08:26:54;;;;;;;6.75;5.13;;;;;;;;;;4972687;28;21010;-73
2021/03/06 08:29:24;;;;;;;6.55;4.47;;;;;;;;;;4973139;28;20187;-74
2021/03/06 08:32:08;;;;;;;5.03;4.63;;;;;;;;;;4971882;28;20180;-77
2021/03/06 08:34:35;;;;;;;5.30;4.80;;;;;;;;;;4971054;28;20438;-73
2021/03/06 08:37:19;;;;;;;6.10;3.90;;;;;;;;;;4977465;28;20559;-76
2021/03/06 08:39:47;;;;;;;4.90;3.37;;;;;;;;;;4979512;28;20430;-76
2021/03/06 08:42:14;;;;;;;5.07;4.60;;;;;;;;;;4971891;28;20469;-73
2021/03/06 08:44:40;;;;;;;4.33;3.77;;;;;;;;;;4973121;28;20439;-73
2021/03/06 08:47:07;;;;;;;5.30;4.80;;;;;;;;;;4969894;28;20838;-75
2021/03/06 08:49:33;;;;;;;5.60;4.60;;;;;;;;;;4972003;28;20487;-77
2021/03/06 08:51:59;;;;;;;5.67;4.90;;;;;;;;;;4972125;28;20431;-76
2021/03/06 08:54:26;;;;;;;4.90;4.40;;;;;;;;;;4972504;28;20934;-73
2021/03/06 08:56:52;;;;;;;5.40;4.60;;;;;;;;;;4971302;28;20425;-72
2021/03/06 08:59:18;;;;;;;5.53;4.97;;;;;;;;;;4967908;28;22134;-74
2021/03/06 09:01:45;;;;;;;4.90;4.40;;;;;;;;;;4971272;28;20451;-76
2021/03/06 09:04:12;;;;;;;5.13;4.63;;;;;;;;;;4971741;28;20436;-75
2021/03/06 09:06:38;;;;;;;5.57;4.60;;;;;;;;;;4971611;28;20492;-73
2021/03/06 09:09:11;;;;;;;4.73;4.27;;;;;;;;;;4974059;28;20439;-74
2021/03/06 09:11:55;;;;;;;6.20;4.17;;;;;;;;;;4975557;28;20519;-74
2021/03/06 09:14:21;;;;;;;5.30;4.80;;;;;;;;;;4955709;28;20451;-75
2021/03/06 09:16:48;;;;;;;5.50;4.53;;;;;;;;;;4967862;28;20484;-72
2021/03/06 09:19:23;;;;;;;4.10;3.73;;;;;;;;;;4967456;28;20453;-73
2021/03/06 09:21:58;;;;;;;4.90;3.60;;;;;;;;;;4968467;28;20544;-73
2021/03/06 09:24:24;;;;;;;4.67;3.90;;;;;;;;;;4969957;28;20794;-74
2021/03/06 09:26:53;;;;;;;3.40;2.60;;;;;;;;;;4970604;28;20501;-74
2021/03/06 09:29:19;;;;;;;7.10;5.70;;;;;;;;;;4970900;28;20446;-74
2021/03/06 09:31:51;;;;;;;6.80;5.20;;;;;;;;;;4971006;28;20478;-74
2021/03/06 09:34:27;;;;;;;5.40;4.90;;;;;;;;;;4970156;28;20437;-75
2021/03/06 09:36:53;;;;;;;4.47;4.07;;;;;;;;;;4970125;28;20454;-74
2021/03/06 09:39:23;;;;;;;4.50;3.87;;;;;;;;;;4953648;28;20469;-73
2021/03/06 09:41:49;;;;;;;5.77;4.40;;;;;;;;;;4970366;28;20545;-75
2021/03/06 09:44:17;;;;;;;4.43;4.03;;;;;;;;;;4952884;28;20451;-75
2021/03/06 09:46:43;;;;;;;4.00;3.53;;;;;;;;;;4969714;28;20513;-76
2021/03/06 09:49:16;;;;;;;5.10;4.60;;;;;;;;;;4970915;28;20528;-74
2021/03/06 09:51:46;;;;;;;6.83;4.23;;;;;;;;;;4971617;28;20446;-74
2021/03/06 09:54:14;;;;;;;5.57;4.50;;;;;;;;;;4970696;28;20552;-76
2021/03/06 09:56:51;;;;;;;4.83;4.20;;;;;;;;;;4971732;28;20442;-75
2021/03/06 09:59:17;;;;;;;7.00;4.47;;;;;;;;;;4972841;28;20445;-76
2021/03/06 10:01:43;;;;;;;4.40;3.50;;;;;;;;;;4956603;28;20500;-75
2021/03/06 10:04:14;;;;;;;4.80;4.30;;;;;;;;;;4973934;28;20454;-74
2021/03/06 10:06:41;;;;;;;3.53;2.87;;;;;;;;;;4973501;28;20488;-75
2021/03/06 10:09:08;;;;;;;4.70;3.93;;;;;;;;;;4974558;28;20537;-77
2021/03/06 10:11:35;;;;;;;4.00;3.60;;;;;;;;;;4973599;28;20453;-76
2021/03/06 10:14:01;;;;;;;5.30;4.10;;;;;;;;;;4973047;28;20462;-76
2021/03/06 10:16:29;;;;;;;4.53;4.13;;;;;;;;;;4973940;28;20481;-76
2021/03/06 10:19:00;;;;;;;3.97;3.10;;;;;;;;;;4974128;28;20445;-75
2021/03/06 10:21:27;;;;;;;6.83;3.90;;;;;;;;;;4973822;28;20525;-75
2021/03/06 10:24:01;;;;;;;4.30;3.90;;;;;;;;;;4974100;28;20442;-74
2021/03/06 10:26:27;;;;;;;5.10;3.63;;;;;;;;;;4971947;28;20490;-76
2021/03/06 10:28:55;;;;;;;5.87;3.43;;;;;;;;;;4956001;28;20465;-75
2021/03/06 10:31:32;;;;;;;5.10;4.37;;;;;;;;;;4974464;28;20453;-77
2021/03/06 10:33:58;;;;;;;6.47;5.80;;;;;;;;;;4974501;28;20449;-77
2021/03/06 10:36:24;;;;;;;5.60;4.27;;;;;;;;;;4973347;28;20549;-77
2021/03/06 10:38:51;;;;;;;4.00;3.70;;;;;;;;;;4974684;28;20470;-76
2021/03/06 10:41:21;;;;;;;8.90;3.93;;;;;;;;;;4973544;28;20442;-74
2021/03/06 10:43:53;;;;;;;4.27;3.87;;;;;;;;;;4970142;28;20858;-75
2021/03/06 10:46:31;;;;;;;4.20;3.83;;;;;;;;;;4973338;28;20498;-76
2021/03/06 10:48:59;;;;;;;3.50;3.20;;;;;;;;;;4974259;28;20452;-74
2021/03/06 10:51:26;;;;;;;4.97;3.70;;;;;;;;;;4972662;28;20959;-77
2021/03/06 10:54:01;;;;;;;4.20;3.80;;;;;;;;;;4973513;28;20441;-75
2021/03/06 10:56:27;;;;;;;4.60;4.20;;;;;;;;;;4956196;28;20489;-76
2021/03/06 10:58:53;;;;;;;5.87;4.30;;;;;;;;;;4976946;28;20515;-74
2021/03/06 11:01:19;;;;;;;4.27;3.77;;;;;;;;;;4976810;28;20497;-75
2021/03/06 11:03:46;;;;;;;4.37;3.73;;;;;;;;;;4975711;28;20426;-76
2021/03/06 11:06:13;;;;;;;3.97;3.57;;;;;;;;;;4974977;28;21000;-76
2021/03/06 11:08:39;;;;;;;4.40;4.00;;;;;;;;;;4972952;28;20521;-76
2021/03/06 11:11:07;;;;;;;4.43;4.03;;;;;;;;;;4979428;28;20450;-75
2021/03/06 11:13:44;;;;;;;3.67;3.37;;;;;;;;;;4956973;28;20457;-77
2021/03/06 11:16:11;;;;;;;4.43;3.53;;;;;;;;;;4954936;28;20520;-81
2021/03/06 11:18:42;;;;;;;6.10;3.93;;;;;;;;;;4958397;28;20469;-81
2021/03/06 11:21:10;;;;;;;4.20;3.90;;;;;;;;;;4970595;28;20446;-80
2021/03/06 11:23:36;;;;;;;3.83;3.53;;;;;;;;;;4972534;28;20489;-78
2021/03/06 11:26:03;;;;;;;4.20;3.73;;;;;;;;;;4972001;28;20550;-79
2021/03/06 11:28:28;;;;;;;2.37;2.13;;;;;;;;;;4970613;28;20454;-74
2021/03/06 11:30:55;;;;;;;3.73;3.43;;;;;;;;;;4969567;28;20442;-76
2021/03/06 11:33:21;;;;;;;3.73;3.30;;;;;;;;;;4970970;28;21013;-77
2021/03/06 11:35:47;;;;;;;4.20;3.40;;;;;;;;;;4971747;28;20442;-77
2021/03/06 11:38:14;;;;;;;3.60;2.80;;;;;;;;;;4971933;28;20438;-74
2021/03/06 11:40:41;;;;;;;3.03;2.83;;;;;;;;;;4970038;28;20791;-76
2021/03/06 11:43:08;;;;;;;4.33;3.37;;;;;;;;;;4970146;28;20474;-75
2021/03/06 11:45:34;;;;;;;4.43;3.83;;;;;;;;;;4970021;28;20537;-77
2021/03/06 11:48:00;;;;;;;3.37;3.13;;;;;;;;;;4969033;28;20482;-75
2021/03/06 11:50:30;;;;;;;3.10;2.80;;;;;;;;;;4953029;28;20971;-75
2021/03/06 11:52:57;;;;;;;3.00;2.80;;;;;;;;;;4969434;28;20457;-78
2021/03/06 11:55:23;;;;;;;3.60;3.30;;;;;;;;;;4970322;28;20829;-76
2021/03/06 11:57:49;;;;;;;5.20;2.90;;;;;;;;;;4968904;28;20486;-79
2021/03/06 12:00:16;;;;;;;20.90;7.47;;;;;;;;;;4971078;28;20513;-78
2021/03/06 12:02:42;;;;;;;4.17;3.23;;;;;;;;;;4976084;28;20478;-76
2021/03/06 12:05:09;;;;;;;3.63;3.33;;;;;;;;;;4981521;28;20445;-76
2021/03/06 12:07:36;;;;;;;3.43;3.13;;;;;;;;;;4981573;28;20481;-77
2021/03/06 12:10:02;;;;;;;2.70;2.47;;;;;;;;;;4980870;28;20542;-76
2021/03/06 12:12:28;;;;;;;2.60;2.40;;;;;;;;;;4977093;28;20457;-77
2021/03/06 12:14:54;;;;;;;3.07;2.43;;;;;;;;;;4974114;28;20454;-74
2021/03/06 12:17:20;;;;;;;2.57;2.33;;;;;;;;;;4974430;28;20500;-74
2021/03/06 12:19:46;;;;;;;3.00;2.43;;;;;;;;;;4977601;28;20445;-76
2021/03/06 12:22:12;;;;;;;2.97;2.77;;;;;;;;;;4976880;28;20955;-73
2021/03/06 12:24:38;;;;;;;3.40;2.80;;;;;;;;;;4975828;28;20555;-77
2021/03/06 12:27:04;;;;;;;2.50;2.30;;;;;;;;;;4978440;28;20586;-76
2021/03/06 12:29:30;;;;;;;2.03;1.93;;;;;;;;;;4972578;28;20464;-74
2021/03/06 12:31:56;;;;;;;1.67;1.53;;;;;;;;;;4971426;28;20458;-76
2021/03/06 12:34:22;;;;;;;2.87;2.47;;;;;;;;;;4971177;28;20489;-75
2021/03/06 12:36:48;;;;;;;2.20;2.00;;;;;;;;;;4972077;28;20446;-74
2021/03/06 12:39:14;;;;;;;1.70;1.60;;;;;;;;;;4971736;28;20505;-76
2021/03/06 12:41:41;;;;;;;2.83;2.50;;;;;;;;;;4971864;28;20450;-75
2021/03/06 12:44:07;;;;;;;2.07;1.97;;;;;;;;;;4953808;28;20469;-73
2021/03/06 12:46:33;;;;;;;3.60;2.30;;;;;;;;;;4970106;28;20529;-73
2021/03/06 12:48:59;;;;;;;2.53;1.97;;;;;;;;;;4971094;28;20949;-73
2021/03/06 12:51:25;;;;;;;2.87;2.10;;;;;;;;;;4971605;28;20577;-75
2021/03/06 12:53:51;;;;;;;2.37;2.17;;;;;;;;;;4970959;28;20561;-75
2021/03/06 12:56:17;;;;;;;2.43;2.20;;;;;;;;;;4970980;28;20548;-75
2021/03/06 12:58:43;;;;;;;3.20;2.67;;;;;;;;;;4970945;28;20446;-76
2021/03/06 13:01:09;;;;;;;2.77;2.50;;;;;;;;;;4970499;28;20461;-75
2021/03/06 13:03:36;;;;;;;2.70;2.50;;;;;;;;;;4971201;28;20435;-74
2021/03/06 13:06:02;;;;;;;2.40;2.20;;;;;;;;;;4970702;28;20478;-75
2021/03/06 13:08:28;;;;;;;3.93;2.30;;;;;;;;;;4970730;28;20462;-77
2021/03/06 13:10:54;;;;;;;2.50;2.27;;;;;;;;;;4971474;28;20443;-75
2021/03/06 13:13:20;;;;;;;2.00;1.90;;;;;;;;;;4971680;28;20442;-76
2021/03/06 13:15:46;;;;;;;3.03;2.00;;;;;;;;;;4970137;28;20489;-74
2021/03/06 13:18:12;;;;;;;2.90;2.70;;;;;;;;;;4969541;28;20506;-74
2021/03/06 13:20:39;;;;;;;2.43;2.20;;;;;;;;;;4971014;28;20446;-74
2021/03/06 13:23:05;;;;;;;1.87;1.77;;;;;;;;;;4973091;28;20450;-74
2021/03/06 13:25:31;;;;;;;1.80;1.70;;;;;;;;;;4971136;28;20422;-74
2021/03/06 13:27:57;;;;;;;2.50;2.20;;;;;;;;;;4972785;28;20485;-76
2021/03/06 13:30:24;;;;;;;4.00;2.40;;;;;;;;;;4972342;28;20406;-76
2021/03/06 13:32:50;;;;;;;2.87;2.50;;;;;;;;;;4972744;28;20423;-74
2021/03/06 13:35:16;;;;;;;2.50;2.33;;;;;;;;;;4973447;28;20421;-75
2021/03/06 13:37:44;;;;;;;4.40;2.13;;;;;;;;;;4972925;28;20415;-77
2021/03/06 13:40:12;;;;;;;3.07;2.87;;;;;;;;;;4973308;28;20436;-75
2021/03/06 13:42:38;;;;;;;3.13;2.60;;;;;;;;;;4973049;28;20406;-74
2021/03/06 13:45:05;;;;;;;3.60;1.90;;;;;;;;;;4972989;28;20422;-74
2021/03/06 13:47:31;;;;;;;2.67;2.40;;;;;;;;;;4972742;28;20513;-74
2021/03/06 13:49:57;;;;;;;4.13;2.53;;;;;;;;;;4973085;28;20905;-74
2021/03/06 13:52:23;;;;;;;2.70;2.43;;;;;;;;;;4955335;28;20430;-75
2021/03/06 13:54:49;;;;;;;2.33;2.13;;;;;;;;;;4972681;28;20506;-74
2021/03/06 13:57:15;;;;;;;3.30;2.43;;;;;;;;;;4972625;28;20819;-74
2021/03/06 13:59:41;;;;;;;4.10;3.60;;;;;;;;;;4972822;28;20471;-74
2021/03/06 14:02:07;;;;;;;2.90;2.67;;;;;;;;;;4972992;28;20807;-75
2021/03/06 14:04:33;;;;;;;2.17;1.97;;;;;;;;;;4972831;28;20407;-73
2021/03/06 14:10:03;;;;;;;3.50;2.47;;;;;;;;;;4972772;28;20510;-75
2021/03/06 14:12:30;;;;;;;2.80;2.60;;;;;;;;;;4972825;28;20468;-74
2021/03/06 14:14:55;;;;;;;2.60;1.80;;;;;;;;;;4972678;28;20816;-75
2021/03/06 14:17:21;;;;;;;2.80;2.60;;;;;;;;;;4972301;28;20462;-74
2021/03/06 14:19:47;;;;;;;4.10;2.60;;;;;;;;;;4973525;28;20721;-73
2021/03/06 14:25:17;;;;;;;2.67;2.47;;;;;;;;;;4973114;28;20537;-73
2021/03/06 14:27:43;;;;;;;3.50;2.33;;;;;;;;;;4971762;28;20466;-75
2021/03/06 14:30:09;;;;;;;4.30;2.90;;;;;;;;;;4972833;28;20415;-75
2021/03/06 14:32:35;;;;;;;3.67;2.43;;;;;;;;;;4972609;28;20410;-73
2021/03/06 14:35:03;;;;;;;3.43;3.13;;;;;;;;;;4972594;28;20422;-75
2021/03/06 14:37:29;;;;;;;3.87;3.17;;;;;;;;;;4972448;28;20422;-74
2021/03/06 14:39:56;;;;;;;2.90;2.70;;;;;;;;;;4972463;28;20419;-74
2021/03/06 14:42:22;;;;;;;3.37;3.07;;;;;;;;;;4972984;28;20418;-73
2021/03/06 14:44:49;;;;;;;3.47;2.47;;;;;;;;;;4975723;28;20568;-74
2021/03/06 14:47:15;;;;;;;2.40;2.20;;;;;;;;;;4975374;28;20501;-73
2021/03/06 14:49:42;;;;;;;3.53;3.23;;;;;;;;;;4975768;28;20426;-74
2021/03/06 14:55:11;;;;;;;3.10;2.63;;;;;;;;;;4975491;28;20433;-74